createdAt,value
2023-02-23T00:00:29.325Z,27.13
2023-02-23T00:02:58.967Z,26.75
2023-02-23T00:05:29.497Z,27.52
2023-02-23T00:08:00.677Z,25.73
2023-02-23T00:10:31.301Z,26.67
2023-02-23T00:13:00.314Z,28.60
2023-02-23T00:15:29.926Z,28.80
2023-02-23T00:17:58.913Z,26.83
2023-02-23T00:20:28.782Z,29.27
2023-02-23T00:22:58.185Z,31.00
2023-02-23T00:25:26.767Z,29.48
2023-02-23T00:27:55.037Z,32.70
2023-02-23T00:30:23.835Z,29.25
2023-02-23T00:32:53.429Z,28.92
2023-02-23T00:35:21.478Z,32.03
2023-02-23T00:37:51.049Z,28.20
2023-02-23T00:40:21.470Z,29.00
2023-02-23T00:42:52.553Z,29.20
2023-02-23T00:45:20.671Z,30.95
2023-02-23T00:47:49.772Z,27.65
2023-02-23T00:50:19.369Z,33.47
2023-02-23T00:52:47.408Z,30.65
2023-02-23T00:55:17.138Z,30.83
2023-02-23T00:57:45.131Z,33.10
2023-02-23T01:00:20.427Z,34.42
2023-02-23T01:02:52.353Z,31.27
2023-02-23T01:05:28.666Z,32.47
2023-02-23T01:08:04.405Z,29.25
2023-02-23T01:10:39.110Z,28.38
2023-02-23T01:13:07.327Z,30.45
2023-02-23T01:15:48.122Z,30.92
2023-02-23T01:18:19.953Z,29.40
2023-02-23T01:20:52.339Z,28.55
2023-02-23T01:23:22.772Z,28.63
2023-02-23T01:25:56.624Z,30.70
2023-02-23T01:28:26.735Z,30.88
2023-02-23T01:30:54.834Z,30.50
2023-02-23T01:33:23.009Z,29.35
2023-02-23T01:36:00.350Z,31.20
2023-02-23T01:38:34.454Z,31.73
2023-02-23T01:41:09.188Z,34.75
2023-02-23T01:43:55.752Z,32.47
2023-02-23T01:46:35.070Z,29.20
2023-02-23T01:49:21.236Z,28.73
2023-02-23T01:51:58.027Z,27.08
2023-02-23T01:54:29.281Z,27.17
2023-02-23T01:57:02.590Z,28.38
2023-02-23T01:59:35.363Z,29.75
2023-02-23T02:02:06.564Z,28.27
2023-02-23T02:04:44.834Z,30.00
2023-02-23T02:07:14.544Z,30.17
2023-02-23T02:10:03.653Z,28.60
2023-02-23T02:12:34.371Z,29.27
2023-02-23T02:15:05.598Z,28.00
2023-02-23T02:17:41.958Z,28.70
2023-02-23T02:20:33.178Z,28.13
2023-02-23T02:23:37.879Z,28.35
2023-02-23T02:26:16.967Z,28.50
2023-02-23T02:29:13.258Z,29.23
2023-02-23T02:32:08.096Z,30.48
2023-02-23T02:35:19.847Z,30.90
2023-02-23T02:38:12.726Z,31.50
2023-02-23T02:43:27.699Z,28.85
2023-02-23T02:46:01.447Z,29.70
2023-02-23T02:48:38.920Z,30.88
2023-02-23T02:51:18.687Z,29.70
2023-02-23T02:53:53.165Z,30.77
2023-02-23T02:56:26.563Z,29.17
2023-02-23T02:58:56.171Z,28.83
2023-02-23T03:01:41.699Z,30.42
2023-02-23T03:04:40.840Z,29.90
2023-02-23T03:07:35.519Z,30.55
2023-02-23T03:10:33.444Z,29.23
2023-02-23T03:13:29.822Z,30.42
2023-02-23T03:16:22.721Z,28.67
2023-02-23T03:22:13.677Z,29.13
2023-02-23T03:25:04.111Z,31.30
2023-02-23T03:28:04.283Z,29.33
2023-02-23T03:30:58.187Z,33.38
2023-02-23T03:33:54.324Z,33.17
2023-02-23T03:36:44.399Z,32.58
2023-02-23T03:39:36.814Z,29.90
2023-02-23T03:42:27.726Z,29.48
2023-02-23T03:45:17.163Z,29.88
2023-02-23T03:48:04.613Z,32.67
2023-02-23T03:50:56.694Z,29.95
2023-02-23T03:53:47.521Z,32.47
2023-02-23T03:56:36.812Z,31.45
2023-02-23T03:59:26.883Z,33.08
2023-02-23T04:02:15.618Z,31.50
2023-02-23T04:05:03.052Z,33.55
2023-02-23T04:07:52.431Z,32.10
2023-02-23T04:10:40.529Z,32.50
2023-02-23T04:13:16.939Z,31.98
2023-02-23T04:15:53.024Z,30.27
2023-02-23T04:18:26.590Z,30.73
2023-02-23T04:20:56.261Z,29.85
2023-02-23T04:23:25.388Z,30.45
2023-02-23T04:25:54.372Z,29.88
2023-02-23T04:28:31.212Z,29.73
2023-02-23T04:31:00.577Z,29.73
2023-02-23T04:33:30.296Z,30.35
2023-02-23T04:35:58.639Z,30.55
2023-02-23T04:38:26.972Z,31.45
2023-02-23T04:40:55.061Z,29.33
2023-02-23T04:43:23.617Z,28.33
2023-02-23T04:45:52.236Z,30.10
2023-02-23T04:48:20.754Z,31.13
2023-02-23T04:50:55.190Z,28.35
2023-02-23T04:53:23.631Z,30.50
2023-02-23T04:55:52.118Z,30.48
2023-02-23T04:58:20.404Z,30.00
2023-02-23T05:00:48.832Z,30.20
2023-02-23T05:03:17.670Z,28.42
2023-02-23T05:05:47.400Z,29.77
2023-02-23T05:08:17.099Z,31.83
2023-02-23T05:10:47.117Z,30.15
2023-02-23T05:13:16.547Z,31.98
2023-02-23T05:15:44.870Z,29.70
2023-02-23T05:18:13.442Z,30.85
2023-02-23T05:20:44.948Z,30.92
2023-02-23T05:23:15.121Z,30.58
2023-02-23T05:25:44.891Z,31.27
2023-02-23T05:28:13.330Z,32.35
2023-02-23T05:30:42.022Z,32.45
2023-02-23T05:33:15.847Z,31.98
2023-02-23T05:35:45.054Z,30.08
2023-02-23T05:38:13.292Z,31.55
2023-02-23T05:40:41.806Z,32.05
2023-02-23T05:43:11.693Z,30.10
2023-02-23T05:45:41.733Z,31.10
2023-02-23T05:48:10.624Z,31.80
2023-02-23T05:50:39.090Z,30.00
2023-02-23T05:53:07.396Z,30.55
2023-02-23T05:55:36.978Z,30.80
2023-02-23T05:58:05.374Z,31.20
2023-02-23T06:00:35.583Z,30.70
2023-02-23T06:03:03.859Z,30.48
2023-02-23T06:05:32.135Z,30.90
2023-02-23T06:08:00.546Z,32.80
2023-02-23T06:10:50.399Z,31.65
2023-02-23T06:13:46.161Z,32.30
2023-02-23T06:16:20.878Z,31.50
2023-02-23T06:18:51.798Z,32.05
2023-02-23T06:21:40.000Z,33.20
2023-02-23T06:24:12.280Z,31.73
2023-02-23T06:26:48.215Z,32.42
2023-02-23T06:29:17.013Z,31.75
2023-02-23T06:31:46.750Z,32.38
2023-02-23T06:34:25.955Z,33.65
2023-02-23T06:36:54.053Z,33.67
2023-02-23T06:39:31.349Z,32.92
2023-02-23T06:42:00.743Z,30.52
2023-02-23T06:44:30.167Z,32.22
2023-02-23T06:47:00.173Z,32.72
2023-02-23T06:49:28.808Z,32.58
2023-02-23T06:52:00.347Z,32.17
2023-02-23T06:54:28.827Z,33.17
2023-02-23T06:56:57.367Z,29.60
2023-02-23T06:59:25.791Z,31.17
2023-02-23T07:01:54.474Z,28.27
2023-02-23T07:04:24.598Z,29.63
2023-02-23T07:06:58.749Z,29.85
2023-02-23T07:09:34.104Z,31.15
2023-02-23T07:12:16.982Z,31.65
2023-02-23T07:15:08.451Z,30.15
2023-02-23T07:17:52.063Z,31.33
2023-02-23T07:20:59.663Z,27.42
2023-02-23T07:30:34.468Z,32.50
2023-02-23T07:33:20.319Z,32.00
2023-02-23T07:36:12.913Z,31.52
2023-02-23T07:38:47.310Z,31.20
2023-02-23T07:44:41.453Z,28.80
2023-02-23T07:47:12.440Z,29.50
2023-02-23T07:49:54.347Z,28.92
2023-02-23T07:52:45.235Z,28.52
2023-02-23T07:55:31.931Z,30.20
2023-02-23T07:58:08.676Z,28.73
2023-02-23T08:04:22.018Z,27.88
2023-02-23T08:06:57.549Z,29.33
2023-02-23T08:09:44.273Z,27.27
2023-02-23T08:15:37.258Z,28.55
2023-02-23T08:18:19.431Z,28.10
2023-02-23T08:24:53.180Z,30.77
2023-02-23T08:27:42.709Z,28.30
2023-02-23T08:30:21.671Z,29.67
2023-02-23T08:33:17.785Z,28.02
2023-02-23T08:36:29.720Z,29.80
2023-02-23T08:39:27.424Z,27.80
2023-02-23T08:42:18.747Z,26.42
2023-02-23T08:47:54.030Z,25.63
2023-02-23T08:50:44.540Z,22.13
2023-02-23T08:53:23.286Z,22.52
2023-02-23T08:56:32.840Z,20.73
2023-02-23T08:59:10.817Z,21.02
2023-02-23T09:02:14.681Z,19.63
2023-02-23T09:05:17.172Z,18.60
2023-02-23T09:07:49.375Z,19.60
2023-02-23T09:10:28.505Z,20.00
2023-02-23T09:13:04.136Z,19.15
2023-02-23T09:18:59.301Z,16.92
2023-02-23T09:21:30.444Z,16.73
2023-02-23T09:24:01.455Z,17.15
2023-02-23T09:26:35.625Z,16.27
2023-02-23T09:29:11.437Z,13.95
2023-02-23T09:31:44.110Z,13.77
2023-02-23T09:34:16.084Z,12.77
2023-02-23T09:36:44.077Z,12.57
2023-02-23T09:39:12.521Z,10.45
2023-02-23T09:41:55.302Z,11.88
2023-02-23T09:44:38.158Z,11.88
2023-02-23T09:47:18.984Z,9.93
2023-02-23T09:49:58.807Z,10.10
2023-02-23T09:52:39.909Z,11.77
2023-02-23T09:55:17.387Z,12.02
2023-02-23T09:57:50.321Z,10.10
2023-02-23T10:00:27.544Z,9.63
2023-02-23T10:03:14.609Z,8.25
2023-02-23T10:06:06.451Z,9.93
2023-02-23T10:08:49.450Z,9.60
2023-02-23T10:11:26.219Z,9.82
2023-02-23T10:14:12.430Z,8.57
2023-02-23T10:17:03.388Z,9.25
2023-02-23T10:19:54.218Z,7.80
2023-02-23T10:23:07.264Z,8.07
2023-02-23T10:26:11.569Z,8.20
2023-02-23T10:28:56.982Z,7.40
2023-02-23T10:32:18.855Z,8.02
2023-02-23T10:38:37.443Z,6.70
2023-02-23T10:41:15.134Z,8.13
2023-02-23T10:44:16.492Z,7.45
2023-02-23T10:46:47.399Z,7.50
2023-02-23T10:49:22.458Z,7.10
2023-02-23T10:51:53.463Z,7.65
2023-02-23T10:54:45.133Z,7.35
2023-02-23T10:57:53.835Z,6.32
2023-02-23T11:00:34.296Z,6.75
2023-02-23T11:03:25.406Z,7.55
2023-02-23T11:06:09.810Z,7.15
2023-02-23T11:08:43.917Z,6.90
2023-02-23T11:11:34.291Z,7.10
2023-02-23T11:14:17.976Z,6.50
2023-02-23T11:16:46.103Z,7.13
2023-02-23T11:19:24.119Z,6.75
2023-02-23T11:21:57.885Z,6.53
2023-02-23T11:24:30.712Z,6.30
2023-02-23T11:27:03.926Z,5.82
2023-02-23T11:29:35.443Z,5.75
2023-02-23T11:32:10.230Z,5.60
2023-02-23T11:34:40.758Z,6.57
2023-02-23T11:37:20.820Z,7.15
2023-02-23T11:39:53.793Z,5.95
2023-02-23T11:42:27.273Z,5.88
2023-02-23T11:45:10.786Z,5.10
2023-02-23T11:47:50.734Z,5.65
2023-02-23T11:50:38.346Z,6.07
2023-02-23T11:53:19.946Z,6.18
2023-02-23T11:56:02.596Z,6.32
2023-02-23T12:02:30.332Z,5.93
2023-02-23T12:05:07.745Z,5.95
2023-02-23T12:07:42.668Z,6.45
2023-02-23T12:10:24.632Z,6.05
2023-02-23T12:12:59.532Z,7.57
2023-02-23T12:15:38.784Z,9.05
2023-02-23T12:18:16.316Z,7.68
2023-02-23T12:20:49.514Z,8.20
2023-02-23T12:23:23.606Z,8.15
2023-02-23T12:26:00.450Z,7.32
2023-02-23T12:28:34.358Z,8.02
2023-02-23T12:31:08.487Z,6.70
2023-02-23T12:33:46.806Z,7.05
2023-02-23T12:36:52.511Z,6.35
2023-02-23T12:39:46.093Z,7.97
2023-02-23T12:42:56.408Z,7.80
2023-02-23T12:46:18.336Z,7.25
2023-02-23T12:49:18.190Z,7.55
2023-02-23T12:52:12.855Z,7.43
2023-02-23T12:54:47.057Z,7.55
2023-02-23T12:57:57.061Z,7.60
2023-02-23T13:00:43.779Z,7.65
2023-02-23T13:03:52.293Z,7.57
2023-02-23T13:06:33.789Z,8.68
2023-02-23T13:09:23.504Z,9.23
2023-02-23T13:12:07.510Z,8.77
2023-02-23T13:14:44.277Z,7.75
2023-02-23T13:17:28.764Z,8.02
2023-02-23T13:20:00.799Z,7.55
2023-02-23T13:22:43.485Z,9.35
2023-02-23T13:25:27.426Z,9.20
2023-02-23T13:28:01.136Z,9.50
2023-02-23T13:30:33.210Z,8.95
2023-02-23T13:33:06.761Z,9.77
2023-02-23T13:35:38.365Z,8.68
2023-02-23T13:38:18.733Z,10.23
2023-02-23T13:40:53.635Z,8.63
2023-02-23T13:43:29.830Z,8.60
2023-02-23T13:46:17.090Z,9.38
2023-02-23T13:48:57.426Z,8.23
2023-02-23T13:51:37.147Z,8.82
2023-02-23T13:54:24.342Z,8.48
2023-02-23T13:56:57.398Z,8.57
2023-02-23T13:59:29.744Z,8.57
2023-02-23T14:02:00.671Z,6.45
2023-02-23T14:04:35.235Z,7.20
2023-02-23T14:07:05.669Z,7.22
2023-02-23T14:09:38.214Z,6.10
2023-02-23T14:12:19.435Z,5.60
2023-02-23T14:14:51.232Z,6.70
2023-02-23T14:17:42.658Z,7.13
2023-02-23T14:20:29.979Z,6.70
2023-02-23T14:23:29.380Z,6.40
2023-02-23T14:26:40.034Z,6.38
2023-02-23T14:29:27.533Z,5.63
2023-02-23T14:32:21.233Z,5.20
2023-02-23T14:35:00.297Z,6.93
2023-02-23T14:37:43.153Z,6.60
2023-02-23T14:40:19.820Z,5.63
2023-02-23T14:42:59.150Z,5.15
2023-02-23T14:45:30.021Z,5.78
2023-02-23T14:48:07.798Z,5.45
2023-02-23T14:50:57.522Z,5.75
2023-02-23T14:53:33.943Z,5.03
2023-02-23T14:56:32.554Z,5.90
2023-02-23T14:59:24.653Z,4.65
2023-02-23T15:01:55.149Z,4.93
2023-02-23T15:04:38.624Z,4.97
2023-02-23T15:07:21.856Z,4.63
2023-02-23T15:09:51.422Z,4.90
2023-02-23T15:12:22.764Z,4.93
2023-02-23T15:14:58.459Z,5.18
2023-02-23T15:17:32.364Z,4.85
2023-02-23T15:20:15.477Z,5.00
2023-02-23T15:22:47.906Z,5.72
2023-02-23T15:25:18.198Z,4.95
2023-02-23T15:27:51.841Z,4.45
2023-02-23T15:30:27.751Z,4.45
2023-02-23T15:33:28.893Z,4.78
2023-02-23T15:36:09.856Z,4.53
2023-02-23T15:38:47.375Z,4.85
2023-02-23T15:41:35.755Z,4.03
2023-02-23T15:44:10.007Z,4.53
2023-02-23T15:46:41.646Z,4.97
2023-02-23T15:49:18.335Z,4.67
2023-02-23T15:51:49.945Z,4.72
2023-02-23T15:54:30.239Z,4.50
2023-02-23T15:57:03.302Z,4.20
2023-02-23T15:59:38.534Z,4.63
2023-02-23T16:02:17.993Z,4.57
2023-02-23T16:04:49.008Z,4.90
2023-02-23T16:07:22.155Z,4.55
2023-02-23T16:09:53.426Z,3.90
2023-02-23T16:12:26.770Z,5.00
2023-02-23T16:15:06.925Z,4.72
2023-02-23T16:18:00.544Z,4.13
2023-02-23T16:20:34.754Z,4.90
2023-02-23T16:23:04.426Z,4.82
2023-02-23T16:25:44.566Z,4.38
2023-02-23T16:28:20.584Z,5.10
2023-02-23T16:30:58.591Z,4.90
2023-02-23T16:33:52.071Z,4.35
2023-02-23T16:36:23.628Z,4.68
2023-02-23T16:39:03.062Z,4.30
2023-02-23T16:41:34.854Z,3.78
2023-02-23T16:44:08.094Z,3.92
2023-02-23T16:46:58.151Z,4.30
2023-02-23T16:49:32.428Z,4.35
2023-02-23T16:52:04.653Z,4.70
2023-02-23T16:54:47.630Z,4.35
2023-02-23T16:57:27.877Z,5.38
2023-02-23T17:00:00.601Z,4.25
2023-02-23T17:02:38.595Z,4.72
2023-02-23T17:05:27.538Z,4.65
2023-02-23T17:08:13.613Z,4.82
2023-02-23T17:10:47.139Z,5.00
2023-02-23T17:13:21.793Z,5.20
2023-02-23T17:18:53.004Z,4.70
2023-02-23T17:21:25.250Z,5.15
2023-02-23T17:24:05.403Z,4.57
2023-02-23T17:26:39.857Z,4.72
2023-02-23T17:29:08.941Z,4.88
2023-02-23T17:31:40.624Z,5.35
2023-02-23T17:34:09.412Z,5.22
2023-02-23T17:36:39.276Z,5.20
2023-02-23T17:39:09.556Z,5.53
2023-02-23T17:41:37.619Z,5.07
2023-02-23T17:44:05.920Z,5.18
2023-02-23T17:46:33.989Z,5.45
2023-02-23T17:49:01.898Z,5.43
2023-02-23T17:51:30.055Z,5.28
2023-02-23T17:53:59.283Z,5.70
2023-02-23T17:56:28.325Z,5.55
2023-02-23T17:58:56.396Z,5.90
2023-02-23T18:01:24.568Z,7.10
2023-02-23T18:03:52.944Z,5.60
2023-02-23T18:06:21.021Z,6.57
2023-02-23T18:08:49.068Z,7.60
2023-02-23T18:11:19.789Z,7.72
2023-02-23T18:13:51.114Z,6.13
2023-02-23T18:16:20.019Z,6.65
2023-02-23T18:18:49.366Z,6.57
2023-02-23T18:21:20.082Z,6.65
2023-02-23T18:23:48.765Z,6.75
2023-02-23T18:26:20.174Z,7.13
2023-02-23T18:28:48.561Z,7.30
2023-02-23T18:31:19.662Z,7.55
2023-02-23T18:33:49.949Z,8.10
2023-02-23T18:36:21.158Z,8.23
2023-02-23T18:38:49.379Z,8.20
2023-02-23T18:41:19.407Z,8.82
2023-02-23T18:43:47.688Z,9.02
2023-02-23T18:46:16.664Z,8.75
2023-02-23T18:48:45.265Z,8.98
2023-02-23T18:51:14.608Z,10.73
2023-02-23T18:53:44.416Z,9.13
2023-02-23T18:56:15.587Z,8.48
2023-02-23T18:58:50.066Z,10.25
2023-02-23T19:01:27.009Z,9.25
2023-02-23T19:04:05.091Z,9.82
2023-02-23T19:06:37.561Z,10.10
2023-02-23T19:09:14.181Z,9.25
2023-02-23T19:11:46.994Z,9.73
2023-02-23T19:16:53.083Z,9.63
2023-02-23T19:19:21.562Z,10.05
2023-02-23T19:21:58.877Z,9.00
2023-02-23T19:24:30.004Z,9.80
2023-02-23T19:27:03.936Z,11.00
2023-02-23T19:29:34.053Z,9.35
2023-02-23T19:32:03.169Z,9.70
2023-02-23T19:34:34.358Z,9.18
2023-02-23T19:37:08.881Z,10.00
2023-02-23T19:39:50.978Z,10.45
2023-02-23T19:42:31.459Z,10.50
2023-02-23T19:45:01.500Z,10.13
2023-02-23T19:47:32.641Z,11.60
2023-02-23T19:50:04.247Z,10.75
2023-02-23T19:52:32.862Z,9.73
2023-02-23T19:55:01.923Z,9.60
2023-02-23T19:57:33.000Z,11.10
2023-02-23T20:00:11.699Z,10.80
2023-02-23T20:02:51.930Z,10.10
2023-02-23T20:05:23.370Z,10.48
2023-02-23T20:07:58.063Z,11.90
2023-02-23T20:10:31.325Z,10.48
2023-02-23T20:13:03.645Z,11.68
2023-02-23T20:15:36.725Z,10.15
2023-02-23T20:18:09.337Z,9.95
2023-02-23T20:23:07.905Z,11.18
2023-02-23T20:25:37.498Z,11.30
2023-02-23T20:28:08.325Z,11.13
2023-02-23T20:30:38.938Z,11.43
2023-02-23T20:33:10.889Z,11.63
2023-02-23T20:35:51.700Z,11.25
2023-02-23T20:38:24.659Z,10.60
2023-02-23T20:40:54.265Z,11.00
2023-02-23T20:43:26.269Z,10.52
2023-02-23T20:46:01.276Z,10.77
2023-02-23T20:48:30.400Z,10.57
2023-02-23T20:51:01.732Z,10.93
2023-02-23T20:53:34.522Z,12.52
2023-02-23T20:56:11.086Z,12.38
2023-02-23T20:58:42.764Z,11.15
2023-02-23T21:01:17.071Z,11.27
2023-02-23T21:03:49.558Z,12.07
2023-02-23T21:08:57.434Z,11.90
2023-02-23T21:11:26.757Z,12.23
2023-02-23T21:13:55.529Z,12.82
2023-02-23T21:16:26.098Z,12.80
2023-02-23T21:19:08.088Z,11.68
2023-02-23T21:21:45.131Z,12.63
2023-02-23T21:24:18.777Z,11.68
2023-02-23T21:26:54.814Z,12.68
2023-02-23T21:29:26.153Z,14.43
2023-02-23T21:32:24.418Z,13.13
2023-02-23T21:35:04.032Z,13.90
2023-02-23T21:37:47.939Z,13.50
2023-02-23T21:40:25.221Z,13.23
2023-02-23T21:43:08.518Z,13.57
2023-02-23T21:45:52.061Z,12.75
2023-02-23T21:48:36.686Z,14.02
2023-02-23T21:51:10.407Z,14.35
2023-02-23T21:54:04.246Z,15.07
2023-02-23T21:56:40.177Z,13.63
2023-02-23T21:59:31.229Z,13.55
2023-02-23T22:02:24.544Z,13.93
2023-02-23T22:05:24.418Z,15.32
2023-02-23T22:08:02.642Z,14.60
2023-02-23T22:10:49.853Z,14.45
2023-02-23T22:13:38.286Z,14.50
2023-02-23T22:16:19.082Z,14.45
2023-02-23T22:18:57.040Z,13.85
2023-02-23T22:21:33.721Z,13.50
2023-02-23T22:24:18.715Z,15.48
2023-02-23T22:27:12.028Z,15.88
2023-02-23T22:30:04.973Z,15.55
2023-02-23T22:32:46.379Z,16.08
2023-02-23T22:35:25.940Z,15.63
2023-02-23T22:38:33.911Z,13.00
2023-02-23T22:41:14.229Z,17.23
2023-02-23T22:44:01.949Z,17.10
2023-02-23T22:46:38.104Z,17.65
2023-02-23T22:49:10.743Z,18.75
2023-02-23T22:52:04.084Z,17.85
2023-02-23T22:54:43.892Z,18.38
2023-02-23T22:57:35.232Z,18.23
2023-02-23T23:00:18.807Z,19.40
2023-02-23T23:03:08.396Z,19.48
2023-02-23T23:05:57.650Z,19.55
2023-02-23T23:08:40.223Z,19.15
2023-02-23T23:11:26.338Z,20.35
2023-02-23T23:14:31.348Z,20.13
2023-02-23T23:17:08.857Z,20.45
2023-02-23T23:19:49.878Z,20.67
2023-02-23T23:22:31.216Z,21.08
2023-02-23T23:25:01.263Z,21.17
2023-02-23T23:27:33.063Z,20.73
2023-02-23T23:30:02.890Z,21.45
2023-02-23T23:32:31.834Z,21.15
2023-02-23T23:35:01.406Z,20.65
2023-02-23T23:37:29.841Z,18.40
2023-02-23T23:40:00.240Z,20.33
2023-02-23T23:42:28.611Z,21.58
2023-02-23T23:45:01.942Z,20.17
2023-02-23T23:47:30.435Z,21.88
2023-02-23T23:50:02.793Z,19.02
2023-02-23T23:52:35.335Z,19.20
2023-02-23T23:57:33.167Z,18.55
